Time;durP1;ratioP1;P1;durP2;ratioP2;P2;SDS_P1;SDS_P2;PMS_P1;PMS_P2;Temp;Humidity;BMP_temperature;BMP_pressure;BME280_temperature;BME280_humidity;BME280_pressure;Samples;Min_cycle;Max_cycle;Signal;HPM_P1;HPM_P2
2022/09/20 00:01:23;;;;;;;8.97;5.53;;;10.10;99.90;;;;;;5053810;28;20195;-60
2022/09/20 00:04:36;;;;;;;9.93;6.00;;;10.10;99.90;;;;;;5053707;28;20176;-60
2022/09/20 00:07:11;;;;;;;9.33;5.70;;;10.10;99.90;;;;;;5071421;28;20208;-61
2022/09/20 00:17:36;;;;;;;8.00;5.77;;;10.10;99.90;;;;;;5053134;28;20221;-60
2022/09/20 00:20:10;;;;;;;11.30;6.10;;;10.10;99.90;;;;;;5053251;28;20204;-61
2022/09/20 00:26:46;;;;;;;8.50;5.40;;;10.10;99.90;;;;;;5053074;28;20188;-60
2022/09/20 00:29:17;;;;;;;8.60;5.67;;;10.10;99.90;;;;;;5051768;28;20795;-60
2022/09/20 00:31:46;;;;;;;9.90;5.53;;;10.10;99.90;;;;;;5053112;28;20213;-60
2022/09/20 00:37:04;;;;;;;6.70;5.67;;;10.10;99.90;;;;;;5053051;28;20196;-61
2022/09/20 00:39:34;;;;;;;10.73;5.47;;;10.00;99.90;;;;;;5060781;28;20192;-60
2022/09/20 00:46:45;;;;;;;9.07;5.67;;;10.10;99.90;;;;;;5070148;28;20245;-61
2022/09/20 00:49:18;;;;;;;12.67;5.87;;;10.00;99.90;;;;;;5072444;28;20198;-60
2022/09/20 00:52:06;;;;;;;9.53;5.83;;;10.00;99.90;;;;;;5072263;28;20224;-60
2022/09/20 00:54:40;;;;;;;6.80;5.47;;;10.00;99.90;;;;;;5072229;28;20196;-61
2022/09/20 00:57:46;;;;;;;11.23;5.67;;;9.90;99.90;;;;;;5072458;28;20188;-60
2022/09/20 01:00:42;;;;;;;10.20;5.57;;;9.90;99.90;;;;;;5065653;28;20195;-60
2022/09/20 01:03:16;;;;;;;12.33;5.40;;;9.90;99.90;;;;;;5052882;28;20303;-61
2022/09/20 01:05:50;;;;;;;8.90;5.23;;;9.90;99.90;;;;;;5065882;28;20188;-60
2022/09/20 01:12:50;;;;;;;11.17;5.43;;;9.90;99.90;;;;;;5072847;28;20219;-61
2022/09/20 01:15:18;;;;;;;8.90;4.93;;;9.80;99.90;;;;;;5056135;28;20200;-61
2022/09/20 01:21:59;;;;;;;9.13;5.47;;;9.80;99.90;;;;;;5066922;28;20203;-60
2022/09/20 01:24:58;;;;;;;6.97;5.37;;;9.90;99.90;;;;;;5052408;28;20196;-60
2022/09/20 01:32:03;;;;;;;9.43;5.50;;;9.80;99.90;;;;;;5070793;28;20531;-60
2022/09/20 01:34:59;;;;;;;12.60;6.10;;;9.80;99.90;;;;;;5072316;28;20242;-60
2022/09/20 01:37:37;;;;;;;11.67;6.47;;;9.90;99.90;;;;;;5050808;28;20189;-61
2022/09/20 01:43:51;;;;;;;10.03;6.00;;;10.00;99.90;;;;;;5063518;28;20550;-61
2022/09/20 01:50:01;;;;;;;17.00;6.13;;;10.00;99.90;;;;;;5058272;28;20605;-60
2022/09/20 01:53:24;;;;;;;11.60;6.50;;;10.00;99.90;;;;;;5070400;28;20240;-60
2022/09/20 01:56:26;;;;;;;13.33;6.20;;;10.10;99.90;;;;;;5009958;28;20230;-60
2022/09/20 01:59:37;;;;;;;9.77;5.53;;;10.20;99.90;;;;;;4999890;28;20567;-60
2022/09/20 02:02:50;;;;;;;14.90;5.70;;;10.20;99.90;;;;;;5071738;28;20542;-60
2022/09/20 02:06:04;;;;;;;13.13;5.77;;;10.30;99.90;;;;;;5072120;28;20187;-60
2022/09/20 02:08:59;;;;;;;12.27;5.80;;;10.30;99.90;;;;;;5037638;28;20251;-60
2022/09/20 02:11:39;;;;;;;14.40;5.63;;;10.30;99.90;;;;;;5071461;28;20192;-60
2022/09/20 02:14:51;;;;;;;10.23;5.27;;;10.30;99.90;;;;;;5071890;28;20211;-60
2022/09/20 02:17:49;;;;;;;10.40;5.43;;;10.30;99.90;;;;;;5071878;28;20650;-61
2022/09/20 02:20:59;;;;;;;6.80;4.53;;;10.30;99.90;;;;;;5073631;28;20192;-61
2022/09/20 02:23:45;;;;;;;6.70;4.67;;;10.30;99.90;;;;;;5054882;28;20191;-61
2022/09/20 02:26:51;;;;;;;7.67;4.63;;;10.30;99.90;;;;;;5093384;28;20223;-60
2022/09/20 02:29:58;;;;;;;6.33;4.57;;;10.20;99.90;;;;;;5055294;28;20554;-60
2022/09/20 02:40:20;;;;;;;5.40;4.77;;;10.10;99.90;;;;;;5065532;28;20263;-60
2022/09/20 02:43:17;;;;;;;7.67;5.17;;;10.10;99.90;;;;;;5056950;28;20197;-60
2022/09/20 02:45:58;;;;;;;7.90;4.80;;;10.00;99.90;;;;;;5055503;28;20200;-60
2022/09/20 02:48:38;;;;;;;10.50;5.50;;;10.00;99.90;;;;;;5075100;28;20294;-61
2022/09/20 02:51:45;;;;;;;9.53;5.60;;;10.00;99.90;;;;;;5074044;28;20216;-60
2022/09/20 02:54:35;;;;;;;8.10;5.23;;;9.90;99.90;;;;;;5074734;28;20214;-60
2022/09/20 03:01:11;;;;;;;10.73;6.00;;;9.80;99.90;;;;;;5073570;28;20681;-62
2022/09/20 03:04:20;;;;;;;15.17;5.60;;;9.80;99.90;;;;;;5054681;28;20246;-61
2022/09/20 03:07:30;;;;;;;10.90;5.60;;;9.80;99.90;;;;;;5055155;28;20635;-61
2022/09/20 03:10:14;;;;;;;6.50;5.50;;;9.70;99.90;;;;;;5069905;28;20191;-61
2022/09/20 03:23:57;;;;;;;11.43;5.73;;;9.70;99.90;;;;;;5055090;28;20191;-60
2022/09/20 03:26:38;;;;;;;13.07;5.33;;;9.70;99.90;;;;;;5074625;28;20196;-61
2022/09/20 03:29:49;;;;;;;8.43;5.50;;;9.70;99.90;;;;;;5074423;28;20202;-61
2022/09/20 03:32:32;;;;;;;8.57;5.60;;;9.70;99.90;;;;;;5069240;28;20192;-60
2022/09/20 03:39:12;;;;;;;5.63;5.13;;;9.70;99.90;;;;;;5072572;28;20241;-60
2022/09/20 03:42:18;;;;;;;5.87;5.37;;;9.60;99.90;;;;;;5073640;28;20188;-60
2022/09/20 03:45:21;;;;;;;8.90;5.57;;;9.60;99.90;;;;;;5073460;28;20202;-60
2022/09/20 03:48:15;;;;;;;11.10;5.33;;;9.50;99.90;;;;;;5069379;28;20203;-60
2022/09/20 03:50:54;;;;;;;10.83;5.67;;;9.50;99.90;;;;;;5072768;28;20282;-60
2022/09/20 03:54:11;;;;;;;10.93;6.13;;;9.50;99.90;;;;;;5081158;28;20207;-61
2022/09/20 03:57:07;;;;;;;9.10;5.50;;;9.50;99.90;;;;;;5048957;28;20248;-60
2022/09/20 03:59:54;;;;;;;13.27;5.80;;;9.40;99.90;;;;;;5093966;28;20187;-60
2022/09/20 04:02:36;;;;;;;8.00;5.50;;;9.40;99.90;;;;;;5065898;28;20235;-60
2022/09/20 04:05:33;;;;;;;7.00;5.13;;;9.30;99.90;;;;;;5052222;28;20200;-60
2022/09/20 04:12:56;;;;;;;9.70;5.67;;;9.30;99.90;;;;;;5070664;28;20576;-60
2022/09/20 04:16:01;;;;;;;9.73;5.60;;;9.20;99.90;;;;;;5055961;28;20283;-61
2022/09/20 04:22:54;;;;;;;6.80;5.63;;;9.10;99.90;;;;;;5073436;28;20180;-60
2022/09/20 04:25:29;;;;;;;11.13;5.33;;;9.00;99.90;;;;;;5067108;28;20192;-60
2022/09/20 04:31:37;;;;;;;13.67;5.67;;;9.00;99.90;;;;;;5053539;28;20196;-60
2022/09/20 04:37:54;;;;;;;10.93;5.43;;;8.90;99.90;;;;;;5070824;28;20196;-60
2022/09/20 04:40:45;;;;;;;9.30;5.93;;;8.90;99.90;;;;;;5072725;28;20206;-60
2022/09/20 04:43:52;;;;;;;14.47;6.23;;;8.90;99.90;;;;;;5075969;28;20530;-60
2022/09/20 04:47:02;;;;;;;9.67;6.03;;;8.90;99.90;;;;;;5052861;28;20200;-60
2022/09/20 04:53:54;;;;;;;8.93;5.90;;;8.80;99.90;;;;;;5098805;28;20279;-60
2022/09/20 04:56:37;;;;;;;8.83;5.80;;;8.90;99.90;;;;;;5072506;28;20216;-60
2022/09/20 04:59:07;;;;;;;11.13;6.40;;;8.90;99.90;;;;;;5071305;28;20207;-60
2022/09/20 05:06:51;;;;;;;8.27;5.70;;;8.80;99.90;;;;;;5071350;28;20682;-60
2022/09/20 05:10:01;;;;;;;14.03;6.17;;;8.80;99.90;;;;;;5064302;28;20654;-60
2022/09/20 05:13:11;;;;;;;11.30;6.03;;;8.80;99.90;;;;;;5065090;28;20226;-60
2022/09/20 05:16:02;;;;;;;12.93;6.63;;;8.80;99.90;;;;;;5072094;28;20203;-60
2022/09/20 05:19:05;;;;;;;11.70;7.17;;;8.80;99.90;;;;;;5053167;28;20204;-61
2022/09/20 05:22:15;;;;;;;9.70;6.37;;;8.80;99.90;;;;;;5057833;28;20199;-60
2022/09/20 05:25:06;;;;;;;9.40;6.43;;;8.80;99.90;;;;;;5057360;28;20254;-60
2022/09/20 05:27:42;;;;;;;18.00;7.27;;;8.90;99.90;;;;;;5052006;28;20655;-60
2022/09/20 05:30:21;;;;;;;10.07;6.67;;;8.90;99.90;;;;;;5068863;28;20771;-60
2022/09/20 05:33:00;;;;;;;7.83;7.03;;;8.90;99.90;;;;;;5072729;28;20200;-60
2022/09/20 05:35:37;;;;;;;11.77;7.10;;;9.00;99.90;;;;;;5071951;28;20215;-61
2022/09/20 05:38:16;;;;;;;7.90;6.80;;;9.00;99.90;;;;;;5054335;28;20189;-60
2022/09/20 05:41:07;;;;;;;16.30;7.43;;;9.00;99.90;;;;;;5072855;28;20203;-60
2022/09/20 05:43:39;;;;;;;9.40;6.47;;;9.00;99.90;;;;;;5072958;28;20189;-60
2022/09/20 05:46:18;;;;;;;11.63;6.67;;;9.00;99.90;;;;;;5072738;28;20681;-60
2022/09/20 05:48:56;;;;;;;10.60;6.87;;;9.00;99.90;;;;;;5072960;28;20188;-61
2022/09/20 05:51:51;;;;;;;15.37;7.57;;;9.00;99.90;;;;;;5072212;28;20231;-60
2022/09/20 05:54:46;;;;;;;11.03;7.47;;;9.10;99.90;;;;;;5071174;28;20254;-61
2022/09/20 05:57:27;;;;;;;13.17;7.57;;;9.10;99.90;;;;;;5056424;28;20181;-60
2022/09/20 06:00:03;;;;;;;8.57;7.00;;;9.10;99.90;;;;;;5056936;28;20189;-60
2022/09/20 06:02:43;;;;;;;13.37;7.60;;;9.10;99.90;;;;;;5076732;28;20195;-60
2022/09/20 06:05:15;;;;;;;17.50;8.47;;;9.10;99.90;;;;;;5076592;28;20550;-60
2022/09/20 06:08:02;;;;;;;13.87;7.47;;;9.10;99.90;;;;;;5076472;28;20196;-60
2022/09/20 06:10:49;;;;;;;13.40;6.90;;;9.10;99.90;;;;;;5076501;28;20188;-60
2022/09/20 06:13:45;;;;;;;14.40;7.90;;;9.20;99.90;;;;;;5076312;28;20188;-60
2022/09/20 06:16:21;;;;;;;13.63;7.50;;;9.20;99.90;;;;;;5058515;28;20291;-60
2022/09/20 06:19:01;;;;;;;14.37;7.43;;;9.20;99.90;;;;;;5072943;28;20206;-60
2022/09/20 06:21:40;;;;;;;9.83;8.07;;;9.20;99.90;;;;;;5078313;28;20542;-60
2022/09/20 06:24:20;;;;;;;12.57;7.53;;;9.30;99.90;;;;;;5095679;28;20183;-60
2022/09/20 06:26:52;;;;;;;13.13;8.03;;;9.30;99.90;;;;;;5096244;28;20620;-60
2022/09/20 06:29:29;;;;;;;10.43;7.43;;;9.40;99.90;;;;;;5056204;28;20648;-60
2022/09/20 06:31:57;;;;;;;14.20;8.30;;;9.50;99.90;;;;;;5066612;28;20203;-60
2022/09/20 06:34:28;;;;;;;14.93;7.70;;;9.60;99.90;;;;;;5065038;28;20208;-60
2022/09/20 06:42:48;;;;;;;13.43;7.63;;;9.80;99.90;;;;;;5071081;28;20196;-60
2022/09/20 06:45:19;;;;;;;19.63;8.60;;;9.90;99.90;;;;;;5075622;28;20195;-60
2022/09/20 06:47:47;;;;;;;18.47;8.30;;;10.00;99.90;;;;;;5075395;28;20196;-60
2022/09/20 06:50:18;;;;;;;14.37;7.57;;;10.20;99.90;;;;;;5075568;28;20191;-60
2022/09/20 06:57:37;;;;;;;15.60;7.20;;;10.50;99.90;;;;;;5075575;28;20242;-60
2022/09/20 07:00:10;;;;;;;11.00;7.07;;;10.70;99.90;;;;;;5074223;28;20195;-60
2022/09/20 07:02:38;;;;;;;10.27;7.23;;;10.80;99.90;;;;;;5075280;28;20270;-60
2022/09/20 07:05:11;;;;;;;12.47;6.60;;;11.10;99.90;;;;;;5074917;28;20184;-60
2022/09/20 07:07:42;;;;;;;9.13;6.70;;;11.30;99.90;;;;;;5075185;28;20184;-61
2022/09/20 07:10:11;;;;;;;14.57;6.50;;;11.60;99.90;;;;;;5075756;28;20196;-60
2022/09/20 07:12:40;;;;;;;11.80;5.80;;;11.80;99.90;;;;;;5075356;28;20202;-60
2022/09/20 07:15:09;;;;;;;8.23;6.50;;;12.00;99.90;;;;;;5074952;28;20310;-61
2022/09/20 07:17:37;;;;;;;5.87;5.30;;;12.20;99.90;;;;;;5074002;28;20192;-60
2022/09/20 07:20:09;;;;;;;8.97;5.20;;;12.40;99.90;;;;;;5075031;28;20597;-60
2022/09/20 07:22:37;;;;;;;5.47;4.83;;;12.50;99.90;;;;;;5075157;28;20199;-60
2022/09/20 07:25:08;;;;;;;9.43;5.40;;;12.70;99.90;;;;;;5073744;28;20195;-61
2022/09/20 07:27:38;;;;;;;10.83;5.33;;;12.90;99.90;;;;;;5075205;28;20507;-60
2022/09/20 07:30:08;;;;;;;9.93;5.03;;;13.00;99.90;;;;;;5074789;28;20194;-61
2022/09/20 07:32:36;;;;;;;7.33;5.33;;;13.20;99.90;;;;;;5075007;28;20196;-60
2022/09/20 07:35:05;;;;;;;8.93;4.80;;;13.40;99.90;;;;;;5074762;28;20246;-61
2022/09/20 07:37:36;;;;;;;5.77;4.73;;;13.50;99.90;;;;;;5068897;28;20201;-60
2022/09/20 07:40:08;;;;;;;5.87;4.70;;;13.70;99.90;;;;;;5055235;28;20203;-61
2022/09/20 07:42:39;;;;;;;5.90;4.37;;;13.70;99.90;;;;;;5064309;28;20196;-60
2022/09/20 07:49:51;;;;;;;6.37;4.07;;;14.00;99.90;;;;;;5055127;28;20227;-60
2022/09/20 07:52:20;;;;;;;6.53;4.63;;;14.10;99.90;;;;;;5068941;28;20634;-61
2022/09/20 07:54:51;;;;;;;7.03;4.10;;;14.30;99.90;;;;;;5074557;28;20212;-61
2022/09/20 07:57:20;;;;;;;8.50;4.30;;;14.50;99.90;;;;;;5074319;28;20196;-61
2022/09/20 07:59:48;;;;;;;16.33;4.30;;;14.70;99.90;;;;;;5075084;28;20196;-61
2022/09/20 08:02:17;;;;;;;7.77;4.03;;;14.90;99.90;;;;;;5074504;28;20535;-60
2022/09/20 08:04:46;;;;;;;7.10;3.87;;;15.00;99.90;;;;;;5073116;28;20630;-60
2022/09/20 08:07:14;;;;;;;6.87;4.10;;;15.20;99.90;;;;;;5072777;28;20299;-60
2022/09/20 08:09:43;;;;;;;4.40;3.97;;;15.40;99.90;;;;;;5072859;28;20192;-61
2022/09/20 08:12:13;;;;;;;7.27;4.20;;;15.40;99.90;;;;;;5074418;28;20191;-60
2022/09/20 08:15:03;;;;;;;5.37;3.70;;;15.60;99.90;;;;;;5073790;28;20301;-60
2022/09/20 08:17:40;;;;;;;6.17;3.70;;;15.90;99.90;;;;;;5073862;28;20201;-61
2022/09/20 08:20:09;;;;;;;4.63;4.13;;;16.20;99.90;;;;;;5065918;28;20195;-61
2022/09/20 08:22:41;;;;;;;7.30;3.67;;;16.30;99.90;;;;;;5054076;28;20192;-61
2022/09/20 08:25:10;;;;;;;3.43;3.13;;;16.50;99.90;;;;;;5053141;28;20181;-60
2022/09/20 08:27:38;;;;;;;11.43;3.13;;;16.80;99.90;;;;;;5053682;28;20195;-61
2022/09/20 08:30:10;;;;;;;5.77;2.73;;;16.80;99.90;;;;;;5054050;28;20193;-60
2022/09/20 08:37:16;;;;;;;5.83;2.80;;;16.20;99.90;;;;;;5053935;28;20203;-60
2022/09/20 08:39:45;;;;;;;7.10;3.17;;;16.10;99.90;;;;;;5053647;28;20637;-60
2022/09/20 08:42:33;;;;;;;4.73;3.00;;;16.00;99.90;;;;;;5053752;28;20280;-61
2022/09/20 08:45:15;;;;;;;5.90;3.13;;;15.80;99.90;;;;;;5054197;28;20196;-61
2022/09/20 08:48:06;;;;;;;3.83;2.87;;;15.90;99.90;;;;;;5052500;28;20194;-61
2022/09/20 08:50:36;;;;;;;3.87;2.40;;;16.20;99.90;;;;;;5053662;28;20201;-60
2022/09/20 08:53:05;;;;;;;3.63;2.10;;;16.40;99.90;;;;;;5053486;28;20629;-61
2022/09/20 08:55:35;;;;;;;4.00;1.90;;;16.50;99.90;;;;;;5053403;28;20221;-61
2022/09/20 08:58:04;;;;;;;4.17;1.90;;;16.80;99.90;;;;;;5052804;28;20205;-60
2022/09/20 09:00:39;;;;;;;3.43;1.70;;;17.00;99.90;;;;;;5053517;28;20193;-61
2022/09/20 09:03:13;;;;;;;3.27;1.70;;;17.00;99.90;;;;;;5086174;28;20191;-60
2022/09/20 09:05:45;;;;;;;2.13;1.40;;;17.10;99.90;;;;;;5053420;28;20606;-61
2022/09/20 09:08:15;;;;;;;3.00;1.50;;;17.20;99.90;;;;;;5053481;28;20212;-61
2022/09/20 09:10:47;;;;;;;1.40;1.30;;;17.20;99.90;;;;;;5053422;28;20616;-61
2022/09/20 09:13:24;;;;;;;3.83;1.50;;;17.00;99.90;;;;;;5053322;28;20204;-60
2022/09/20 09:15:59;;;;;;;4.30;2.00;;;17.10;99.90;;;;;;5053094;28;20216;-61
2022/09/20 09:18:34;;;;;;;1.70;1.30;;;17.20;99.90;;;;;;5053298;28;20193;-61
2022/09/20 09:21:04;;;;;;;1.33;1.20;;;17.30;99.90;;;;;;5053645;28;20183;-60
2022/09/20 09:23:41;;;;;;;4.67;1.30;;;17.30;99.90;;;;;;5051927;28;20214;-61
2022/09/20 09:26:19;;;;;;;1.67;1.20;;;17.10;99.90;;;;;;5052228;28;20235;-60
2022/09/20 09:29:03;;;;;;;3.10;1.50;;;17.10;99.90;;;;;;5055959;28;20181;-60
2022/09/20 09:31:33;;;;;;;1.43;1.33;;;17.20;99.90;;;;;;5070821;28;20210;-61
2022/09/20 09:34:01;;;;;;;1.77;1.20;;;17.10;99.90;;;;;;5076341;28;20241;-60
2022/09/20 09:36:30;;;;;;;0.90;0.90;;;17.10;99.90;;;;;;5077117;28;20223;-60
2022/09/20 09:39:16;;;;;;;2.03;1.27;;;17.10;99.90;;;;;;5077350;28;20188;-60
2022/09/20 09:41:45;;;;;;;2.13;1.20;;;17.10;99.90;;;;;;5109945;28;20196;-61
2022/09/20 09:44:26;;;;;;;1.57;1.07;;;17.10;99.90;;;;;;5059537;28;20758;-61
2022/09/20 09:46:57;;;;;;;2.97;1.40;;;17.00;99.90;;;;;;5057433;28;20169;-61
2022/09/20 09:49:28;;;;;;;3.20;1.30;;;16.90;99.90;;;;;;5057045;28;20185;-61
2022/09/20 09:52:13;;;;;;;1.20;1.10;;;16.90;99.90;;;;;;5056963;28;20354;-60
2022/09/20 09:54:47;;;;;;;2.17;1.00;;;16.80;99.90;;;;;;5057321;28;20185;-60
2022/09/20 09:57:31;;;;;;;1.33;1.10;;;16.70;99.90;;;;;;5055507;28;20673;-60
2022/09/20 10:00:10;;;;;;;2.83;1.20;;;16.70;99.90;;;;;;5056653;28;20185;-60
2022/09/20 10:03:45;;;;;;;1.20;1.10;;;16.60;99.90;;;;;;5057130;28;20305;-61
2022/09/20 10:06:23;;;;;;;3.27;1.00;;;16.70;99.90;;;;;;5055629;28;20188;-61
2022/09/20 10:09:08;;;;;;;2.80;1.20;;;16.70;99.90;;;;;;5056888;28;20193;-60
2022/09/20 10:11:47;;;;;;;3.13;1.30;;;16.80;99.90;;;;;;5089478;28;20181;-61
2022/09/20 10:14:32;;;;;;;2.03;1.10;;;16.90;99.90;;;;;;5056301;28;20201;-60
2022/09/20 10:17:11;;;;;;;5.13;1.50;;;17.00;99.90;;;;;;5056373;28;20204;-61
2022/09/20 10:20:03;;;;;;;1.30;1.20;;;17.00;99.90;;;;;;5056727;28;20172;-61
2022/09/20 10:22:45;;;;;;;2.43;1.40;;;17.00;99.90;;;;;;5056163;28;20250;-60
2022/09/20 10:25:42;;;;;;;2.43;1.27;;;17.00;99.90;;;;;;5056338;28;20196;-60
2022/09/20 10:28:24;;;;;;;3.10;1.70;;;17.00;99.90;;;;;;5056636;28;20180;-60
2022/09/20 10:31:05;;;;;;;2.63;1.47;;;16.90;99.90;;;;;;5069227;28;20195;-60
2022/09/20 10:33:44;;;;;;;4.00;1.47;;;16.80;99.90;;;;;;5075116;28;20190;-60
2022/09/20 10:36:25;;;;;;;4.93;1.43;;;16.70;99.90;;;;;;5075937;28;20211;-61
2022/09/20 10:39:02;;;;;;;4.13;1.70;;;16.60;99.90;;;;;;5075555;28;20279;-60
2022/09/20 10:44:46;;;;;;;3.43;1.60;;;16.50;99.90;;;;;;5109078;28;20196;-61
2022/09/20 10:47:19;;;;;;;1.43;1.30;;;16.50;99.90;;;;;;5076404;28;20193;-60
2022/09/20 10:49:57;;;;;;;3.47;1.77;;;16.60;99.90;;;;;;5075696;28;20245;-61
2022/09/20 10:52:40;;;;;;;3.60;1.23;;;16.70;99.90;;;;;;5075694;28;20238;-61
2022/09/20 10:55:25;;;;;;;3.37;1.43;;;16.80;99.90;;;;;;5075747;28;20526;-60
2022/09/20 10:58:13;;;;;;;4.37;1.20;;;16.90;99.90;;;;;;5076057;28;20216;-61
2022/09/20 11:00:49;;;;;;;2.60;1.37;;;16.90;99.90;;;;;;5075520;28;20195;-60
2022/09/20 11:03:32;;;;;;;5.70;1.30;;;17.00;99.90;;;;;;5075622;28;20604;-61
2022/09/20 11:06:16;;;;;;;3.10;1.20;;;16.90;99.90;;;;;;5075406;28;20259;-60
2022/09/20 11:08:50;;;;;;;2.13;1.30;;;16.90;99.90;;;;;;5076112;28;20192;-60
2022/09/20 11:11:22;;;;;;;1.80;1.30;;;17.00;99.90;;;;;;5075448;28;20188;-60
2022/09/20 11:14:01;;;;;;;3.50;1.23;;;17.00;99.90;;;;;;5075703;28;20188;-61
2022/09/20 11:16:36;;;;;;;4.40;1.07;;;17.00;99.90;;;;;;5074410;28;20192;-60
2022/09/20 11:19:17;;;;;;;3.73;1.10;;;17.00;99.90;;;;;;5075369;28;20213;-61
2022/09/20 11:21:49;;;;;;;1.40;1.20;;;17.00;99.90;;;;;;5075105;28;20551;-60
2022/09/20 11:24:30;;;;;;;1.47;1.30;;;17.20;99.90;;;;;;5075175;28;20523;-60
2022/09/20 11:27:02;;;;;;;2.07;1.20;;;17.30;99.90;;;;;;5075428;28;20180;-60
2022/09/20 11:29:35;;;;;;;1.27;1.07;;;17.80;99.90;;;;;;5067883;28;20201;-60
2022/09/20 11:32:13;;;;;;;5.00;1.37;;;18.40;99.90;;;;;;5055022;28;20193;-61
2022/09/20 11:34:52;;;;;;;3.60;1.10;;;18.90;99.90;;;;;;5053936;28;20197;-60
2022/09/20 11:37:22;;;;;;;1.53;1.43;;;19.30;99.90;;;;;;5055200;28;20198;-61
2022/09/20 11:39:55;;;;;;;2.40;1.27;;;19.90;99.90;;;;;;5053800;28;20536;-61
2022/09/20 11:42:28;;;;;;;1.20;1.17;;;20.30;99.90;;;;;;5062791;28;20192;-61
2022/09/20 11:44:57;;;;;;;3.63;1.10;;;20.30;99.90;;;;;;5074699;28;20193;-61
2022/09/20 11:47:30;;;;;;;1.87;1.07;;;20.50;99.90;;;;;;5074459;28;20190;-60
2022/09/20 11:50:49;;;;;;;2.63;1.10;;;20.80;99.90;;;;;;5074505;28;20193;-60
2022/09/20 11:53:30;;;;;;;1.20;1.20;;;21.20;99.90;;;;;;5073895;28;20708;-60
2022/09/20 11:56:11;;;;;;;1.10;1.10;;;21.10;99.90;;;;;;5074345;28;20214;-60
2022/09/20 11:58:48;;;;;;;3.93;1.33;;;20.80;99.90;;;;;;5074371;28;20208;-61
2022/09/20 12:01:26;;;;;;;2.00;1.30;;;20.50;99.90;;;;;;5074793;28;20186;-60
2022/09/20 12:03:58;;;;;;;1.80;1.23;;;20.00;99.90;;;;;;5090277;28;20597;-60
2022/09/20 12:06:56;;;;;;;3.87;1.20;;;19.70;99.90;;;;;;5074593;28;20193;-61
2022/09/20 12:09:28;;;;;;;1.30;1.20;;;19.50;99.90;;;;;;5073228;28;20263;-60
2022/09/20 12:11:58;;;;;;;1.30;1.20;;;19.20;99.90;;;;;;5074291;28;20195;-60
2022/09/20 12:14:31;;;;;;;2.43;1.33;;;19.10;99.90;;;;;;5074140;28;20200;-60
2022/09/20 12:16:59;;;;;;;2.00;1.57;;;18.80;99.90;;;;;;5072992;28;20200;-60
2022/09/20 12:19:38;;;;;;;3.80;1.60;;;18.50;99.90;;;;;;5072823;28;20211;-60
2022/09/20 12:22:28;;;;;;;5.17;1.87;;;18.00;99.90;;;;;;5074285;28;20196;-60
2022/09/20 12:25:45;;;;;;;2.03;1.83;;;17.70;99.90;;;;;;5074087;28;20192;-60
2022/09/20 12:28:16;;;;;;;3.63;2.20;;;17.40;99.90;;;;;;5035340;28;20231;-60
2022/09/20 12:30:44;;;;;;;3.37;2.10;;;17.20;99.90;;;;;;5069070;28;20215;-60
2022/09/20 12:33:21;;;;;;;2.47;2.07;;;17.10;99.90;;;;;;5073906;28;20206;-60
2022/09/20 12:35:53;;;;;;;3.70;2.07;;;16.90;99.90;;;;;;5073715;28;20528;-59
2022/09/20 12:38:40;;;;;;;4.40;2.67;;;16.90;99.90;;;;;;5072313;28;20219;-60
2022/09/20 12:41:13;;;;;;;5.80;2.50;;;16.70;99.90;;;;;;5072819;28;20590;-60
2022/09/20 12:43:55;;;;;;;3.77;2.30;;;16.70;99.90;;;;;;5074213;28;20194;-60
2022/09/20 12:46:31;;;;;;;5.47;2.50;;;16.60;99.90;;;;;;5072920;28;20195;-60
2022/09/20 12:52:59;;;;;;;2.87;1.90;;;16.50;99.90;;;;;;5072149;28;20234;-60
2022/09/20 12:55:44;;;;;;;6.80;2.30;;;16.40;99.90;;;;;;5073476;28;20211;-60
2022/09/20 12:58:43;;;;;;;3.50;2.40;;;16.30;99.90;;;;;;5073475;28;20254;-61
2022/09/20 13:01:35;;;;;;;2.50;2.20;;;16.20;99.90;;;;;;5073274;28;20204;-60
2022/09/20 13:04:51;;;;;;;8.10;2.17;;;16.00;99.90;;;;;;5072152;28;20191;-59
2022/09/20 13:07:52;;;;;;;4.73;2.50;;;16.00;99.90;;;;;;5072492;28;20198;-60
2022/09/20 13:10:33;;;;;;;3.93;2.40;;;15.80;99.90;;;;;;5073750;28;20622;-60
2022/09/20 13:13:27;;;;;;;2.60;2.33;;;15.70;99.90;;;;;;5067707;28;20555;-61
2022/09/20 13:15:57;;;;;;;4.73;2.50;;;15.60;99.90;;;;;;5053345;28;20189;-60
2022/09/20 13:18:28;;;;;;;5.20;2.43;;;15.50;99.90;;;;;;5052382;28;20241;-61
2022/09/20 13:21:01;;;;;;;4.57;2.67;;;15.40;99.90;;;;;;5052133;28;20374;-60
2022/09/20 13:23:33;;;;;;;3.67;2.20;;;15.40;99.90;;;;;;5053232;28;20186;-60
2022/09/20 13:26:03;;;;;;;3.70;2.30;;;15.30;99.90;;;;;;5053854;28;20201;-60
2022/09/20 13:28:39;;;;;;;4.10;1.80;;;15.30;99.90;;;;;;5053158;28;20186;-61
2022/09/20 13:31:33;;;;;;;3.07;2.00;;;15.20;99.90;;;;;;5052113;28;20548;-60
2022/09/20 13:34:20;;;;;;;3.27;1.90;;;15.20;99.90;;;;;;5043148;28;20220;-61
2022/09/20 13:36:51;;;;;;;2.20;1.77;;;15.20;99.90;;;;;;5053336;28;20189;-61
2022/09/20 13:39:30;;;;;;;4.50;1.60;;;15.30;99.90;;;;;;5053160;28;20240;-60
2022/09/20 13:42:02;;;;;;;5.13;1.80;;;15.30;99.90;;;;;;5051887;28;20293;-60
2022/09/20 13:44:33;;;;;;;5.33;1.97;;;15.30;99.90;;;;;;5052965;28;20190;-61
2022/09/20 13:47:06;;;;;;;1.67;1.53;;;15.40;99.90;;;;;;5053282;28;20189;-61
2022/09/20 13:49:43;;;;;;;3.93;1.57;;;15.40;99.90;;;;;;5052869;28;20196;-61
2022/09/20 13:52:23;;;;;;;2.77;1.83;;;15.40;99.90;;;;;;5052737;28;20706;-60
2022/09/20 13:54:53;;;;;;;3.37;2.00;;;15.50;99.90;;;;;;5053242;28;20200;-60
2022/09/20 13:57:26;;;;;;;4.63;1.80;;;15.50;99.90;;;;;;5052121;28;20198;-60
2022/09/20 13:59:56;;;;;;;5.30;2.13;;;15.60;99.90;;;;;;5068603;28;20221;-60
2022/09/20 14:02:29;;;;;;;2.50;1.77;;;15.70;99.90;;;;;;5073085;28;20214;-61
2022/09/20 14:05:03;;;;;;;4.97;2.10;;;15.80;99.90;;;;;;5072816;28;20194;-60
2022/09/20 14:07:35;;;;;;;4.77;1.80;;;15.90;99.90;;;;;;5073118;28;20196;-61
2022/09/20 14:10:04;;;;;;;3.80;1.70;;;16.00;99.90;;;;;;5073278;28;20186;-61
2022/09/20 14:12:33;;;;;;;3.17;1.90;;;16.00;99.90;;;;;;5072768;28;20195;-60
2022/09/20 14:15:08;;;;;;;3.90;1.80;;;16.10;99.90;;;;;;5074749;28;20188;-60
2022/09/20 14:17:37;;;;;;;5.57;2.03;;;16.20;99.90;;;;;;5076633;28;20454;-60
2022/09/20 14:20:12;;;;;;;2.73;1.90;;;16.30;99.90;;;;;;5076663;28;20231;-61
2022/09/20 14:22:42;;;;;;;1.43;1.43;;;16.50;99.90;;;;;;5076270;28;20196;-61
2022/09/20 14:25:21;;;;;;;3.73;1.60;;;16.60;99.90;;;;;;5076508;28;20180;-60
2022/09/20 14:28:05;;;;;;;2.20;1.50;;;16.90;99.90;;;;;;5074845;28;20679;-60
2022/09/20 14:30:36;;;;;;;1.60;1.50;;;17.00;99.90;;;;;;5076315;28;20198;-60
2022/09/20 14:33:06;;;;;;;1.53;1.43;;;17.30;99.90;;;;;;5076160;28;20551;-60
2022/09/20 14:35:36;;;;;;;1.43;1.30;;;17.70;99.90;;;;;;5076058;28;20195;-61
2022/09/20 14:38:09;;;;;;;1.80;1.70;;;17.70;99.90;;;;;;5076325;28;20215;-60
2022/09/20 14:40:43;;;;;;;1.37;1.30;;;17.70;99.90;;;;;;5076330;28;20248;-60
2022/09/20 14:43:30;;;;;;;9.03;6.63;;;18.00;99.90;;;;;;5076180;28;20657;-61
2022/09/20 14:46:02;;;;;;;1.43;1.20;;;18.40;99.90;;;;;;5074632;28;20302;-60
2022/09/20 14:48:35;;;;;;;2.33;1.23;;;18.70;99.90;;;;;;5078590;28;20206;-60
2022/09/20 14:51:30;;;;;;;4.73;1.60;;;19.10;99.90;;;;;;5096133;28;20199;-60
2022/09/20 14:54:28;;;;;;;1.43;1.30;;;19.40;99.90;;;;;;5055650;28;20659;-59
2022/09/20 15:00:50;;;;;;;1.27;1.00;;;18.70;99.90;;;;;;5055141;28;20193;-60
2022/09/20 15:15:05;;;;;;;4.63;2.10;;;17.60;99.90;;;;;;5055098;28;20180;-61
2022/09/20 15:26:00;;;;;;;3.90;1.90;;;17.20;99.90;;;;;;5054410;28;20189;-61
2022/09/20 15:37:47;;;;;;;2.43;1.73;;;16.90;99.90;;;;;;5054789;28;20228;-62
2022/09/20 15:40:22;;;;;;;4.93;1.53;;;16.80;99.90;;;;;;5067672;28;20222;-61
2022/09/20 15:42:55;;;;;;;1.90;1.63;;;16.80;99.90;;;;;;5074626;28;20188;-61
2022/09/20 15:45:25;;;;;;;1.67;1.57;;;16.80;99.90;;;;;;5074518;28;20181;-61
2022/09/20 15:48:31;;;;;;;4.37;1.70;;;16.80;99.90;;;;;;5073092;28;20198;-62
2022/09/20 15:54:48;;;;;;;2.60;1.47;;;16.60;99.90;;;;;;5074203;28;20203;-61
2022/09/20 15:57:20;;;;;;;4.47;1.63;;;16.50;99.90;;;;;;5074009;28;20192;-61
2022/09/20 16:04:25;;;;;;;7.43;2.57;;;16.30;99.90;;;;;;5063270;28;20237;-61
2022/09/20 16:06:56;;;;;;;5.77;2.63;;;16.20;99.90;;;;;;5106373;28;20186;-62
2022/09/20 16:17:16;;;;;;;2.73;2.07;;;16.00;99.90;;;;;;5052639;28;20224;-62
2022/09/20 16:19:46;;;;;;;2.07;1.90;;;15.90;99.90;;;;;;5054076;28;20683;-62
2022/09/20 16:22:57;;;;;;;1.80;1.70;;;15.90;99.90;;;;;;5053865;28;20652;-61
2022/09/20 16:29:13;;;;;;;2.13;1.80;;;15.80;99.90;;;;;;5053728;28;20192;-62
2022/09/20 16:36:23;;;;;;;4.37;2.40;;;15.70;99.90;;;;;;5053769;28;20231;-62
2022/09/20 16:43:51;;;;;;;4.17;2.60;;;15.50;99.90;;;;;;5052387;28;20181;-62
2022/09/20 16:51:02;;;;;;;9.97;6.07;;;15.40;99.90;;;;;;5053469;28;20168;-62
2022/09/20 16:53:32;;;;;;;11.87;6.87;;;15.30;99.90;;;;;;5058226;28;20228;-61
2022/09/20 17:00:39;;;;;;;9.33;5.60;;;15.20;99.90;;;;;;5053553;28;20198;-62
2022/09/20 17:03:08;;;;;;;7.33;4.87;;;15.20;99.90;;;;;;5035303;28;20222;-62
2022/09/20 17:09:13;;;;;;;3.63;3.23;;;15.20;99.90;;;;;;5052091;28;20197;-61